Time;durP1;ratioP1;P1;durP2;ratioP2;P2;SDS_P1;SDS_P2;PMS_P1;PMS_P2;Temp;Humidity;BMP_temperature;BMP_pressure;BME280_temperature;BME280_humidity;BME280_pressure;Samples;Min_cycle;Max_cycle;Signal;HPM_P1;HPM_P2
2022/12/28 05:02:25;;;;;;;9.53;4.13;;;;;;;18.87;61.91;96730.41;23620973;23;20243;-58
2022/12/28 05:12:24;;;;;;;8.80;4.33;;;;;;;18.85;61.80;96721.75;20148233;29;20468;-59
2022/12/28 05:22:24;;;;;;;8.17;3.67;;;;;;;18.83;61.56;96719.34;20165927;29;20551;-60
2022/12/28 05:32:25;;;;;;;7.97;4.20;;;;;;;18.82;61.84;96716.91;20161518;29;20500;-58
2022/12/28 05:42:24;;;;;;;10.30;4.83;;;;;;;18.81;61.85;96713.41;20160632;29;20231;-59
2022/12/28 05:52:22;;;;;;;7.97;3.97;;;;;;;18.83;61.89;96713.13;20159767;29;20240;-59
2022/12/28 06:02:24;;;;;;;6.40;3.60;;;;;;;18.84;62.01;96693.91;20159127;29;20235;-59
2022/12/28 06:12:22;;;;;;;8.13;4.40;;;;;;;18.85;61.83;96686.59;20158365;29;20236;-59
2022/12/28 06:22:21;;;;;;;8.50;4.03;;;;;;;18.83;61.88;96657.13;20191657;29;20224;-58
2022/12/28 06:32:19;;;;;;;8.43;4.10;;;;;;;18.84;62.08;96669.56;20193086;29;20211;-58
2022/12/28 06:42:21;;;;;;;7.97;3.90;;;;;;;18.83;61.76;96651.72;20221728;29;20224;-58
2022/12/28 06:52:19;;;;;;;10.13;3.90;;;;;;;18.83;61.80;96650.91;20232610;29;20507;-58
2022/12/28 07:02:20;;;;;;;8.30;4.07;;;;;;;18.79;61.57;96604.69;20231767;29;20223;-59
2022/12/28 07:12:18;;;;;;;8.40;3.77;;;;;;;18.78;61.99;96608.47;20231026;29;20223;-57
2022/12/28 07:22:17;;;;;;;9.10;3.20;;;;;;;18.79;61.71;96631.75;20213614;29;20564;-59
2022/12/28 07:32:16;;;;;;;4.10;2.83;;;;;;;14.11;51.07;96636.28;20229555;29;20267;-57
2022/12/28 07:42:15;;;;;;;3.97;2.17;;;;;;;16.51;51.79;96638.59;20222970;29;20291;-59
2022/12/28 07:52:13;;;;;;;1.93;1.57;;;;;;;18.35;50.88;96633.72;20189406;29;20235;-58
2022/12/28 08:02:12;;;;;;;2.03;1.30;;;;;;;19.05;51.04;96624.13;20149961;29;20229;-57
2022/12/28 08:12:10;;;;;;;2.80;1.10;;;;;;;19.27;50.89;96629.03;20152171;29;20224;-58
2022/12/28 08:22:09;;;;;;;2.30;1.20;;;;;;;19.23;51.45;96622.59;20220925;29;20503;-57
2022/12/28 08:32:10;;;;;;;1.60;1.03;;;;;;;19.19;52.18;96625.06;20226440;29;20243;-57
2022/12/28 08:42:09;;;;;;;2.47;1.20;;;;;;;19.12;52.59;96608.38;20226268;29;20282;-61
2022/12/28 08:52:07;;;;;;;3.13;1.47;;;;;;;19.09;53.52;96610.84;20143947;29;20236;-59
2022/12/28 09:02:06;;;;;;;3.50;0.90;;;;;;;19.07;54.31;96607.63;20161925;29;20241;-60
2022/12/28 09:12:06;;;;;;;6.50;1.40;;;;;;;19.05;54.75;96607.13;20162245;29;20285;-58
2022/12/28 09:22:05;;;;;;;4.37;1.37;;;;;;;19.02;55.14;96614.69;20161207;29;20224;-62
2022/12/28 09:32:05;;;;;;;4.20;1.10;;;;;;;18.99;55.58;96598.22;20160563;29;20244;-60
2022/12/28 09:42:10;;;;;;;4.20;1.17;;;;;;;19.00;55.72;96587.13;20143541;29;20516;-61
2022/12/28 09:52:25;;;;;;;5.40;1.27;;;;;;;19.03;56.03;96583.84;20158985;29;20304;-60
2022/12/28 10:02:29;;;;;;;3.43;1.23;;;;;;;19.16;55.59;96579.63;20157514;29;20242;-59
2022/12/28 10:12:30;;;;;;;3.07;1.23;;;;;;;19.31;57.64;96563.19;20156505;29;20224;-58
2022/12/28 10:22:38;;;;;;;5.73;1.33;;;;;;;19.37;57.46;96551.19;20156510;29;20221;-57
2022/12/28 10:32:49;;;;;;;5.40;1.30;;;;;;;19.43;57.95;96535.72;20155185;29;20432;-56
2022/12/28 10:42:53;;;;;;;4.13;1.50;;;;;;;19.35;59.17;96529.03;20154736;29;20285;-57
2022/12/28 10:52:57;;;;;;;8.10;2.10;;;;;;;19.31;58.80;96525.28;20154020;29;20232;-58
2022/12/28 11:02:57;;;;;;;15.53;3.30;;;;;;;19.41;58.69;96516.25;20153077;29;20229;-56
2022/12/28 11:12:57;;;;;;;24.10;3.40;;;;;;;19.23;59.05;96498.06;20151546;29;20209;-56
2022/12/28 11:22:57;;;;;;;29.53;5.47;;;;;;;19.53;58.41;96481.41;20151478;29;20244;-57
2022/12/28 11:32:58;;;;;;;20.50;4.37;;;;;;;19.69;58.33;96479.28;20151143;29;20233;-58
2022/12/28 11:42:57;;;;;;;37.77;8.27;;;;;;;19.50;58.94;96461.16;20150509;29;20388;-57
2022/12/28 11:52:55;;;;;;;49.83;11.20;;;;;;;19.41;55.97;96449.38;20149657;29;20282;-59
2022/12/28 12:02:56;;;;;;;109.10;97.80;;;;;;;18.61;49.67;96440.44;20148375;29;20236;-57
2022/12/28 12:12:55;;;;;;;59.40;51.20;;;;;;;17.81;46.97;96423.19;20147953;29;20236;-58
2022/12/28 12:22:59;;;;;;;15.27;11.37;;;;;;;17.91;46.23;96405.00;20148333;29;20284;-59
2022/12/28 12:33:00;;;;;;;9.10;7.13;;;;;;;18.20;45.75;96387.91;20162584;29;20217;-59
2022/12/28 12:43:12;;;;;;;10.67;7.23;;;;;;;18.47;47.56;96371.91;20163426;29;20241;-60
2022/12/28 12:53:26;;;;;;;29.80;13.93;;;;;;;18.67;51.33;96352.75;20162648;29;20433;-59
2022/12/28 13:03:41;;;;;;;30.37;12.90;;;;;;;18.74;51.97;96345.09;20161875;29;20220;-59
2022/12/28 13:13:41;;;;;;;21.33;10.23;;;;;;;18.77;53.20;96340.97;20160603;29;20244;-60
2022/12/28 13:23:44;;;;;;;29.77;12.47;;;;;;;18.79;53.77;96327.97;20175215;29;20220;-57
2022/12/28 13:33:42;;;;;;;38.03;11.03;;;;;;;18.80;54.81;96305.22;20172369;29;20571;-60
2022/12/28 13:44:09;;;;;;;23.67;9.80;;;;;;;18.81;55.66;96285.19;20162068;29;20228;-59
2022/12/28 13:54:11;;;;;;;25.00;9.00;;;;;;;18.90;56.16;96275.28;20159000;29;20228;-58
2022/12/28 14:04:18;;;;;;;24.73;9.87;;;;;;;18.86;56.40;96290.53;20157570;29;20289;-59
2022/12/28 14:14:37;;;;;;;19.80;9.00;;;;;;;18.83;56.63;96286.53;20156575;29;20233;-58
2022/12/28 14:24:36;;;;;;;20.37;8.27;;;;;;;18.83;56.97;96283.00;20156696;29;20231;-58
2022/12/28 14:34:36;;;;;;;22.23;8.20;;;;;;;18.82;56.64;96273.28;20155485;29;20220;-58
2022/12/28 14:44:38;;;;;;;19.73;8.73;;;;;;;18.81;56.78;96245.41;20155414;29;20246;-56
2022/12/28 14:54:44;;;;;;;16.33;7.83;;;;;;;18.80;57.00;96241.13;20153742;29;20304;-57
2022/12/28 15:04:44;;;;;;;17.20;7.60;;;;;;;18.80;57.00;96234.91;20156760;29;20220;-59
2022/12/28 15:14:42;;;;;;;19.77;7.37;;;;;;;18.79;57.00;96227.88;20154908;29;20224;-59
2022/12/28 15:24:43;;;;;;;13.67;6.40;;;;;;;18.78;57.22;96224.38;20167174;29;20287;-59
2022/12/28 15:34:42;;;;;;;17.83;7.57;;;;;;;18.78;57.09;96221.66;20151419;29;20303;-58
2022/12/28 15:44:41;;;;;;;12.60;6.17;;;;;;;18.76;57.31;96217.66;20133963;29;20255;-59
2022/12/28 15:54:39;;;;;;;13.77;6.20;;;;;;;18.76;57.53;96212.25;20149616;29;20253;-57
2022/12/28 16:04:47;;;;;;;14.53;6.77;;;;;;;18.76;57.16;96196.00;20148940;29;20432;-59
2022/12/28 16:14:46;;;;;;;13.70;6.50;;;;;;;18.75;57.44;96197.09;20149074;29;20448;-59
2022/12/28 16:24:48;;;;;;;11.77;6.10;;;;;;;18.74;57.49;96200.94;20152851;29;20286;-59
2022/12/28 16:34:47;;;;;;;17.30;6.40;;;;;;;18.73;57.45;96177.69;20152389;29;20524;-57
2022/12/28 16:44:47;;;;;;;13.73;6.17;;;;;;;18.76;57.70;96177.06;20147853;29;20224;-62
2022/12/28 16:54:47;;;;;;;14.87;6.20;;;;;;;18.78;58.01;96172.16;20147588;29;20228;-60
2022/12/28 17:04:46;;;;;;;12.23;5.37;;;;;;;18.80;58.18;96167.28;20147214;29;20254;-59
2022/12/28 17:14:44;;;;;;;18.43;6.17;;;;;;;18.81;58.17;96160.75;20152166;29;20234;-60
2022/12/28 17:24:44;;;;;;;16.17;5.30;;;;;;;18.81;58.36;96160.75;20163312;29;20223;-61
2022/12/28 17:34:42;;;;;;;11.53;5.30;;;;;;;18.82;58.29;96157.75;20162061;29;20263;-59
2022/12/28 17:44:44;;;;;;;14.20;4.93;;;;;;;18.83;58.79;96140.44;20159452;29;20280;-56
2022/12/28 17:54:44;;;;;;;16.57;4.90;;;;;;;18.84;59.22;96122.28;20158781;29;20224;-56
2022/12/28 18:04:44;;;;;;;11.00;4.93;;;;;;;18.85;59.22;96113.88;20157664;29;20248;-54
2022/12/28 18:14:41;;;;;;;10.13;4.33;;;;;;;18.87;59.51;96095.44;20156988;29;20236;-57
2022/12/28 18:24:41;;;;;;;12.40;5.13;;;;;;;18.88;59.66;96088.94;20156195;29;20233;-56
2022/12/28 18:34:39;;;;;;;12.40;5.10;;;;;;;18.90;59.72;96069.69;20139084;29;20221;-57
2022/12/28 18:44:38;;;;;;;10.13;4.00;;;;;;;18.90;59.81;96066.97;20156940;29;20231;-62
2022/12/28 18:54:36;;;;;;;8.70;4.33;;;;;;;19.15;60.36;96047.53;20156819;29;20228;-60
2022/12/28 19:04:38;;;;;;;6.43;3.60;;;;;;;19.42;59.57;96042.09;20153717;29;20220;-59
2022/12/28 19:14:36;;;;;;;8.27;4.30;;;;;;;19.59;59.89;96035.25;20152736;29;20232;-59
2022/12/28 19:24:35;;;;;;;10.77;4.20;;;;;;;19.90;58.90;96020.69;20151063;29;20745;-59
2022/12/28 19:34:33;;;;;;;15.07;3.73;;;;;;;19.68;59.60;96001.72;20150787;29;20632;-58
2022/12/28 19:44:33;;;;;;;8.53;3.53;;;;;;;19.59;59.41;96002.75;20150631;29;20220;-58
2022/12/28 19:54:33;;;;;;;22.53;3.73;;;;;;;19.52;59.65;96001.28;20149876;29;20228;-58
2022/12/28 20:04:32;;;;;;;8.33;3.87;;;;;;;19.46;59.83;95996.28;20148627;29;20237;-56
2022/12/28 20:14:30;;;;;;;7.83;3.33;;;;;;;19.43;60.06;95994.19;20148899;29;20229;-57
2022/12/28 20:24:32;;;;;;;6.93;3.17;;;;;;;19.45;60.00;95992.75;20147783;29;20217;-60
2022/12/28 20:34:30;;;;;;;7.53;3.57;;;;;;;19.39;59.75;95983.16;20148281;29;20228;-59
2022/12/28 20:44:32;;;;;;;9.10;3.47;;;;;;;19.36;59.36;95977.50;20147956;29;20209;-60
2022/12/28 20:54:30;;;;;;;5.00;2.83;;;;;;;19.28;59.63;95967.41;20163113;29;20239;-58
2022/12/28 21:04:30;;;;;;;7.83;3.53;;;;;;;19.21;59.61;95954.31;20163744;29;20228;-58
2022/12/28 21:14:28;;;;;;;6.83;3.10;;;;;;;19.17;59.93;95971.47;20162000;29;20315;-58
2022/12/28 21:24:27;;;;;;;9.60;3.80;;;;;;;19.15;60.05;95957.44;20161717;29;20323;-64
2022/12/28 21:34:26;;;;;;;9.87;3.10;;;;;;;19.11;59.88;95937.50;20160642;29;20542;-62
2022/12/28 21:44:26;;;;;;;6.43;3.27;;;;;;;19.08;59.61;95935.41;20160948;29;20529;-61
2022/12/28 21:54:24;;;;;;;6.40;3.27;;;;;;;19.05;59.98;95928.69;20160215;29;20532;-63
